sensor_id;sensor_type;location;lat;lon;timestamp;P1;durP1;ratioP1;P2;durP2;ratioP2
69203;SDS011;56317;27.658;85.326;2024-01-27T00:00:26;101.95;;;40.30;;
69203;SDS011;56317;27.658;85.326;2024-01-27T00:02:53;96.68;;;38.60;;
69203;SDS011;56317;27.658;85.326;2024-01-27T00:05:20;96.07;;;38.67;;
69203;SDS011;56317;27.658;85.326;2024-01-27T00:07:47;105.95;;;50.42;;
69203;SDS011;56317;27.658;85.326;2024-01-27T00:10:15;94.72;;;37.42;;
69203;SDS011;56317;27.658;85.326;2024-01-27T00:12:42;97.50;;;39.85;;
69203;SDS011;56317;27.658;85.326;2024-01-27T00:15:09;96.72;;;40.35;;
69203;SDS011;56317;27.658;85.326;2024-01-27T00:17:36;111.28;;;55.03;;
69203;SDS011;56317;27.658;85.326;2024-01-27T00:20:03;126.35;;;58.38;;
69203;SDS011;56317;27.658;85.326;2024-01-27T00:22:31;124.70;;;45.20;;
69203;SDS011;56317;27.658;85.326;2024-01-27T00:24:58;127.05;;;46.35;;
69203;SDS011;56317;27.658;85.326;2024-01-27T00:27:25;116.90;;;45.70;;
69203;SDS011;56317;27.658;85.326;2024-01-27T00:29:52;121.97;;;52.28;;
69203;SDS011;56317;27.658;85.326;2024-01-27T00:32:19;136.18;;;57.03;;
69203;SDS011;56317;27.658;85.326;2024-01-27T00:34:47;128.25;;;54.50;;
69203;SDS011;56317;27.658;85.326;2024-01-27T00:37:14;143.25;;;63.08;;
69203;SDS011;56317;27.658;85.326;2024-01-27T00:39:41;141.73;;;59.88;;
69203;SDS011;56317;27.658;85.326;2024-01-27T00:42:08;139.55;;;59.30;;
69203;SDS011;56317;27.658;85.326;2024-01-27T00:44:35;145.90;;;58.95;;
69203;SDS011;56317;27.658;85.326;2024-01-27T00:47:02;163.57;;;68.05;;
69203;SDS011;56317;27.658;85.326;2024-01-27T00:49:30;151.43;;;62.35;;
69203;SDS011;56317;27.658;85.326;2024-01-27T00:51:57;159.70;;;66.25;;
69203;SDS011;56317;27.658;85.326;2024-01-27T00:54:24;148.98;;;63.60;;
69203;SDS011;56317;27.658;85.326;2024-01-27T00:56:51;155.52;;;62.20;;
69203;SDS011;56317;27.658;85.326;2024-01-27T00:59:18;154.02;;;66.53;;
69203;SDS011;56317;27.658;85.326;2024-01-27T01:01:46;174.32;;;67.35;;
69203;SDS011;56317;27.658;85.326;2024-01-27T01:04:13;172.52;;;68.10;;
69203;SDS011;56317;27.658;85.326;2024-01-27T01:06:40;181.20;;;76.88;;
69203;SDS011;56317;27.658;85.326;2024-01-27T01:09:08;204.68;;;97.55;;
69203;SDS011;56317;27.658;85.326;2024-01-27T01:11:35;194.18;;;85.72;;
69203;SDS011;56317;27.658;85.326;2024-01-27T01:14:02;186.82;;;80.07;;
69203;SDS011;56317;27.658;85.326;2024-01-27T01:16:29;177.98;;;76.55;;
69203;SDS011;56317;27.658;85.326;2024-01-27T01:18:57;198.00;;;78.10;;
69203;SDS011;56317;27.658;85.326;2024-01-27T01:21:24;160.18;;;72.28;;
69203;SDS011;56317;27.658;85.326;2024-01-27T01:23:52;168.07;;;68.88;;
69203;SDS011;56317;27.658;85.326;2024-01-27T01:26:19;187.27;;;72.70;;
69203;SDS011;56317;27.658;85.326;2024-01-27T01:28:46;191.90;;;91.80;;
69203;SDS011;56317;27.658;85.326;2024-01-27T01:31:14;153.27;;;68.90;;
69203;SDS011;56317;27.658;85.326;2024-01-27T01:33:41;161.13;;;65.70;;
69203;SDS011;56317;27.658;85.326;2024-01-27T01:36:08;171.65;;;85.95;;
69203;SDS011;56317;27.658;85.326;2024-01-27T01:38:36;163.75;;;67.82;;
69203;SDS011;56317;27.658;85.326;2024-01-27T01:41:03;162.90;;;64.35;;
69203;SDS011;56317;27.658;85.326;2024-01-27T01:43:30;180.05;;;83.78;;
69203;SDS011;56317;27.658;85.326;2024-01-27T01:45:57;171.38;;;72.07;;
69203;SDS011;56317;27.658;85.326;2024-01-27T01:48:24;217.63;;;91.00;;
69203;SDS011;56317;27.658;85.326;2024-01-27T01:50:52;167.85;;;69.00;;
69203;SDS011;56317;27.658;85.326;2024-01-27T01:53:19;174.48;;;86.82;;
69203;SDS011;56317;27.658;85.326;2024-01-27T01:55:48;178.55;;;87.45;;
69203;SDS011;56317;27.658;85.326;2024-01-27T01:58:16;192.15;;;93.13;;
69203;SDS011;56317;27.658;85.326;2024-01-27T02:00:43;197.23;;;96.18;;
69203;SDS011;56317;27.658;85.326;2024-01-27T02:03:11;194.13;;;106.35;;
69203;SDS011;56317;27.658;85.326;2024-01-27T02:05:39;197.60;;;102.70;;
69203;SDS011;56317;27.658;85.326;2024-01-27T02:08:06;193.48;;;101.43;;
69203;SDS011;56317;27.658;85.326;2024-01-27T02:10:34;185.82;;;97.80;;
69203;SDS011;56317;27.658;85.326;2024-01-27T02:13:04;196.40;;;98.68;;
69203;SDS011;56317;27.658;85.326;2024-01-27T02:15:47;195.05;;;102.03;;
69203;SDS011;56317;27.658;85.326;2024-01-27T02:18:16;190.13;;;100.15;;
69203;SDS011;56317;27.658;85.326;2024-01-27T02:20:43;210.02;;;106.60;;
69203;SDS011;56317;27.658;85.326;2024-01-27T02:23:10;200.10;;;105.88;;
69203;SDS011;56317;27.658;85.326;2024-01-27T02:25:38;213.70;;;109.90;;
69203;SDS011;56317;27.658;85.326;2024-01-27T02:28:05;207.50;;;106.78;;
69203;SDS011;56317;27.658;85.326;2024-01-27T02:30:32;190.48;;;97.72;;
69203;SDS011;56317;27.658;85.326;2024-01-27T02:32:59;177.98;;;89.15;;
69203;SDS011;56317;27.658;85.326;2024-01-27T02:35:26;143.07;;;69.10;;
69203;SDS011;56317;27.658;85.326;2024-01-27T02:37:53;153.02;;;74.85;;
69203;SDS011;56317;27.658;85.326;2024-01-27T02:40:20;171.18;;;86.75;;
69203;SDS011;56317;27.658;85.326;2024-01-27T02:42:48;142.48;;;72.22;;
69203;SDS011;56317;27.658;85.326;2024-01-27T02:45:15;151.43;;;72.53;;
69203;SDS011;56317;27.658;85.326;2024-01-27T02:47:42;151.32;;;72.10;;
69203;SDS011;56317;27.658;85.326;2024-01-27T02:50:09;156.32;;;75.22;;
69203;SDS011;56317;27.658;85.326;2024-01-27T02:52:37;157.63;;;74.78;;
69203;SDS011;56317;27.658;85.326;2024-01-27T02:55:05;154.65;;;74.30;;
69203;SDS011;56317;27.658;85.326;2024-01-27T02:57:32;111.20;;;55.45;;
69203;SDS011;56317;27.658;85.326;2024-01-27T03:00:00;121.82;;;56.08;;
69203;SDS011;56317;27.658;85.326;2024-01-27T03:02:27;80.70;;;35.38;;
69203;SDS011;56317;27.658;85.326;2024-01-27T03:04:54;78.22;;;37.42;;
69203;SDS011;56317;27.658;85.326;2024-01-27T03:07:21;74.22;;;35.60;;
69203;SDS011;56317;27.658;85.326;2024-01-27T03:09:48;99.07;;;42.25;;
69203;SDS011;56317;27.658;85.326;2024-01-27T03:12:17;95.72;;;45.08;;
69203;SDS011;56317;27.658;85.326;2024-01-27T03:14:44;99.30;;;47.28;;
69203;SDS011;56317;27.658;85.326;2024-01-27T03:17:12;108.20;;;50.75;;
69203;SDS011;56317;27.658;85.326;2024-01-27T03:19:39;104.05;;;48.63;;
69203;SDS011;56317;27.658;85.326;2024-01-27T03:22:06;112.43;;;52.15;;
69203;SDS011;56317;27.658;85.326;2024-01-27T03:24:33;120.22;;;52.70;;
69203;SDS011;56317;27.658;85.326;2024-01-27T03:27:00;112.07;;;51.72;;
69203;SDS011;56317;27.658;85.326;2024-01-27T03:29:27;111.68;;;53.15;;
69203;SDS011;56317;27.658;85.326;2024-01-27T03:31:55;116.35;;;52.75;;
69203;SDS011;56317;27.658;85.326;2024-01-27T03:34:22;106.30;;;49.00;;
69203;SDS011;56317;27.658;85.326;2024-01-27T03:36:50;112.47;;;51.60;;
69203;SDS011;56317;27.658;85.326;2024-01-27T03:39:17;113.82;;;52.28;;
69203;SDS011;56317;27.658;85.326;2024-01-27T03:41:44;109.68;;;54.08;;
69203;SDS011;56317;27.658;85.326;2024-01-27T03:44:11;124.90;;;63.50;;
69203;SDS011;56317;27.658;85.326;2024-01-27T03:46:40;139.65;;;68.13;;
69203;SDS011;56317;27.658;85.326;2024-01-27T03:49:10;145.45;;;68.97;;
69203;SDS011;56317;27.658;85.326;2024-01-27T03:51:37;144.68;;;68.00;;
69203;SDS011;56317;27.658;85.326;2024-01-27T03:54:04;133.05;;;66.43;;
69203;SDS011;56317;27.658;85.326;2024-01-27T03:56:32;148.52;;;66.22;;
69203;SDS011;56317;27.658;85.326;2024-01-27T03:58:59;134.60;;;63.75;;
69203;SDS011;56317;27.658;85.326;2024-01-27T04:01:26;124.05;;;57.70;;
69203;SDS011;56317;27.658;85.326;2024-01-27T04:03:53;112.82;;;56.97;;
69203;SDS011;56317;27.658;85.326;2024-01-27T04:06:20;112.45;;;55.38;;
69203;SDS011;56317;27.658;85.326;2024-01-27T04:08:47;119.03;;;58.42;;
69203;SDS011;56317;27.658;85.326;2024-01-27T04:11:20;127.15;;;58.42;;
69203;SDS011;56317;27.658;85.326;2024-01-27T04:13:48;104.68;;;54.40;;
69203;SDS011;56317;27.658;85.326;2024-01-27T04:16:17;117.18;;;60.03;;
69203;SDS011;56317;27.658;85.326;2024-01-27T04:18:44;116.43;;;58.25;;
69203;SDS011;56317;27.658;85.326;2024-01-27T04:21:12;138.75;;;62.85;;
69203;SDS011;56317;27.658;85.326;2024-01-27T04:23:39;118.15;;;61.47;;
69203;SDS011;56317;27.658;85.326;2024-01-27T04:26:06;134.10;;;63.83;;
69203;SDS011;56317;27.658;85.326;2024-01-27T04:28:34;117.53;;;59.10;;
69203;SDS011;56317;27.658;85.326;2024-01-27T04:31:02;123.95;;;59.50;;
69203;SDS011;56317;27.658;85.326;2024-01-27T04:33:30;121.30;;;60.10;;
69203;SDS011;56317;27.658;85.326;2024-01-27T04:35:57;112.90;;;58.13;;
69203;SDS011;56317;27.658;85.326;2024-01-27T04:38:24;114.53;;;54.63;;
69203;SDS011;56317;27.658;85.326;2024-01-27T04:40:51;120.45;;;60.58;;
69203;SDS011;56317;27.658;85.326;2024-01-27T04:43:18;123.90;;;61.75;;
69203;SDS011;56317;27.658;85.326;2024-01-27T04:45:46;109.18;;;58.35;;
69203;SDS011;56317;27.658;85.326;2024-01-27T04:48:15;111.72;;;60.75;;
69203;SDS011;56317;27.658;85.326;2024-01-27T04:50:42;108.57;;;56.95;;
69203;SDS011;56317;27.658;85.326;2024-01-27T04:53:09;110.97;;;60.40;;
69203;SDS011;56317;27.658;85.326;2024-01-27T04:55:36;116.38;;;57.85;;
69203;SDS011;56317;27.658;85.326;2024-01-27T04:58:04;99.05;;;51.72;;
69203;SDS011;56317;27.658;85.326;2024-01-27T05:00:32;116.50;;;56.22;;
69203;SDS011;56317;27.658;85.326;2024-01-27T05:02:59;90.43;;;47.22;;
69203;SDS011;56317;27.658;85.326;2024-01-27T05:05:29;82.22;;;43.30;;
69203;SDS011;56317;27.658;85.326;2024-01-27T05:07:56;82.32;;;42.30;;
69203;SDS011;56317;27.658;85.326;2024-01-27T05:10:24;87.90;;;43.13;;
69203;SDS011;56317;27.658;85.326;2024-01-27T05:12:51;90.68;;;42.85;;
69203;SDS011;56317;27.658;85.326;2024-01-27T05:15:18;85.95;;;41.65;;
69203;SDS011;56317;27.658;85.326;2024-01-27T05:17:45;85.28;;;44.55;;
69203;SDS011;56317;27.658;85.326;2024-01-27T05:20:13;91.60;;;44.08;;
69203;SDS011;56317;27.658;85.326;2024-01-27T05:22:40;82.50;;;38.20;;
69203;SDS011;56317;27.658;85.326;2024-01-27T05:25:08;75.60;;;40.35;;
69203;SDS011;56317;27.658;85.326;2024-01-27T05:27:36;68.97;;;38.42;;
69203;SDS011;56317;27.658;85.326;2024-01-27T05:30:05;73.30;;;40.40;;
69203;SDS011;56317;27.658;85.326;2024-01-27T05:32:32;80.80;;;40.97;;
69203;SDS011;56317;27.658;85.326;2024-01-27T05:35:00;79.30;;;41.00;;
69203;SDS011;56317;27.658;85.326;2024-01-27T05:37:28;61.88;;;37.80;;
69203;SDS011;56317;27.658;85.326;2024-01-27T05:39:55;78.47;;;40.13;;
69203;SDS011;56317;27.658;85.326;2024-01-27T05:42:23;74.80;;;40.03;;
69203;SDS011;56317;27.658;85.326;2024-01-27T05:44:50;75.53;;;38.47;;
69203;SDS011;56317;27.658;85.326;2024-01-27T05:47:17;77.70;;;39.42;;
69203;SDS011;56317;27.658;85.326;2024-01-27T05:49:44;72.53;;;38.17;;
69203;SDS011;56317;27.658;85.326;2024-01-27T05:52:11;69.47;;;38.72;;
69203;SDS011;56317;27.658;85.326;2024-01-27T05:54:41;73.43;;;38.38;;
69203;SDS011;56317;27.658;85.326;2024-01-27T05:57:08;65.28;;;36.97;;
69203;SDS011;56317;27.658;85.326;2024-01-27T05:59:36;72.80;;;35.35;;
69203;SDS011;56317;27.658;85.326;2024-01-27T06:02:03;74.63;;;38.63;;
69203;SDS011;56317;27.658;85.326;2024-01-27T06:04:31;68.07;;;36.80;;
69203;SDS011;56317;27.658;85.326;2024-01-27T06:06:58;69.18;;;34.90;;
69203;SDS011;56317;27.658;85.326;2024-01-27T06:09:26;68.13;;;32.30;;
69203;SDS011;56317;27.658;85.326;2024-01-27T06:11:53;60.20;;;32.63;;
69203;SDS011;56317;27.658;85.326;2024-01-27T06:14:20;55.20;;;30.90;;
69203;SDS011;56317;27.658;85.326;2024-01-27T06:16:47;53.38;;;31.15;;
69203;SDS011;56317;27.658;85.326;2024-01-27T06:19:16;62.88;;;32.78;;
69203;SDS011;56317;27.658;85.326;2024-01-27T06:21:44;58.33;;;31.55;;
69203;SDS011;56317;27.658;85.326;2024-01-27T06:24:11;56.97;;;30.08;;
69203;SDS011;56317;27.658;85.326;2024-01-27T06:26:38;55.05;;;30.20;;
69203;SDS011;56317;27.658;85.326;2024-01-27T06:29:05;62.30;;;30.45;;
69203;SDS011;56317;27.658;85.326;2024-01-27T06:31:32;61.75;;;30.05;;
69203;SDS011;56317;27.658;85.326;2024-01-27T06:33:59;52.40;;;29.27;;
69203;SDS011;56317;27.658;85.326;2024-01-27T06:36:28;55.00;;;30.20;;
69203;SDS011;56317;27.658;85.326;2024-01-27T06:38:55;47.22;;;27.30;;
69203;SDS011;56317;27.658;85.326;2024-01-27T06:41:22;44.05;;;25.10;;
69203;SDS011;56317;27.658;85.326;2024-01-27T06:43:50;44.83;;;25.75;;
69203;SDS011;56317;27.658;85.326;2024-01-27T06:46:17;47.47;;;28.52;;
69203;SDS011;56317;27.658;85.326;2024-01-27T06:48:44;51.55;;;28.08;;
69203;SDS011;56317;27.658;85.326;2024-01-27T06:51:11;57.03;;;29.55;;
69203;SDS011;56317;27.658;85.326;2024-01-27T06:53:39;56.00;;;28.38;;
69203;SDS011;56317;27.658;85.326;2024-01-27T06:56:06;43.60;;;22.73;;
69203;SDS011;56317;27.658;85.326;2024-01-27T06:58:35;46.10;;;24.40;;
69203;SDS011;56317;27.658;85.326;2024-01-27T07:01:02;28.65;;;16.92;;
69203;SDS011;56317;27.658;85.326;2024-01-27T07:03:29;28.85;;;14.98;;
69203;SDS011;56317;27.658;85.326;2024-01-27T07:05:57;27.70;;;15.10;;
69203;SDS011;56317;27.658;85.326;2024-01-27T07:08:26;29.27;;;14.50;;
69203;SDS011;56317;27.658;85.326;2024-01-27T07:10:55;36.75;;;14.88;;
69203;SDS011;56317;27.658;85.326;2024-01-27T07:13:22;22.40;;;10.52;;
69203;SDS011;56317;27.658;85.326;2024-01-27T07:15:49;34.92;;;15.23;;
69203;SDS011;56317;27.658;85.326;2024-01-27T07:18:16;29.45;;;14.50;;
69203;SDS011;56317;27.658;85.326;2024-01-27T07:20:45;12.77;;;6.82;;
69203;SDS011;56317;27.658;85.326;2024-01-27T07:23:12;29.05;;;13.93;;
69203;SDS011;56317;27.658;85.326;2024-01-27T07:25:39;24.73;;;12.35;;
69203;SDS011;56317;27.658;85.326;2024-01-27T07:28:07;38.78;;;18.05;;
69203;SDS011;56317;27.658;85.326;2024-01-27T07:30:34;32.40;;;13.85;;
69203;SDS011;56317;27.658;85.326;2024-01-27T07:33:02;27.30;;;12.38;;
69203;SDS011;56317;27.658;85.326;2024-01-27T07:35:29;27.08;;;14.00;;
69203;SDS011;56317;27.658;85.326;2024-01-27T07:37:57;25.13;;;13.60;;
69203;SDS011;56317;27.658;85.326;2024-01-27T07:40:24;30.30;;;12.32;;
69203;SDS011;56317;27.658;85.326;2024-01-27T07:42:52;27.55;;;14.13;;
69203;SDS011;56317;27.658;85.326;2024-01-27T07:45:20;26.23;;;15.43;;
69203;SDS011;56317;27.658;85.326;2024-01-27T07:47:47;28.55;;;14.15;;
69203;SDS011;56317;27.658;85.326;2024-01-27T07:50:14;29.58;;;14.85;;
69203;SDS011;56317;27.658;85.326;2024-01-27T07:52:41;31.13;;;14.30;;
69203;SDS011;56317;27.658;85.326;2024-01-27T07:55:08;32.10;;;15.30;;
69203;SDS011;56317;27.658;85.326;2024-01-27T07:57:36;31.23;;;14.23;;
69203;SDS011;56317;27.658;85.326;2024-01-27T08:00:03;26.48;;;13.10;;
69203;SDS011;56317;27.658;85.326;2024-01-27T08:02:32;33.92;;;14.90;;
69203;SDS011;56317;27.658;85.326;2024-01-27T08:04:59;29.67;;;14.63;;
69203;SDS011;56317;27.658;85.326;2024-01-27T08:07:26;35.17;;;13.07;;
69203;SDS011;56317;27.658;85.326;2024-01-27T08:09:53;33.28;;;15.98;;
69203;SDS011;56317;27.658;85.326;2024-01-27T08:12:22;30.35;;;15.40;;
69203;SDS011;56317;27.658;85.326;2024-01-27T08:14:49;39.67;;;16.17;;
69203;SDS011;56317;27.658;85.326;2024-01-27T08:17:17;40.95;;;15.93;;
69203;SDS011;56317;27.658;85.326;2024-01-27T08:19:44;44.15;;;13.88;;
69203;SDS011;56317;27.658;85.326;2024-01-27T08:22:11;30.90;;;13.40;;
69203;SDS011;56317;27.658;85.326;2024-01-27T08:24:38;40.80;;;16.38;;
69203;SDS011;56317;27.658;85.326;2024-01-27T08:27:05;31.48;;;14.13;;
69203;SDS011;56317;27.658;85.326;2024-01-27T08:29:32;30.75;;;13.30;;
69203;SDS011;56317;27.658;85.326;2024-01-27T08:32:00;24.30;;;11.15;;
69203;SDS011;56317;27.658;85.326;2024-01-27T08:34:27;37.63;;;19.35;;
69203;SDS011;56317;27.658;85.326;2024-01-27T08:36:59;43.60;;;23.02;;
69203;SDS011;56317;27.658;85.326;2024-01-27T08:39:27;37.83;;;14.07;;
69203;SDS011;56317;27.658;85.326;2024-01-27T08:41:56;34.08;;;15.30;;
69203;SDS011;56317;27.658;85.326;2024-01-27T08:44:23;34.13;;;15.93;;
69203;SDS011;56317;27.658;85.326;2024-01-27T08:46:50;28.77;;;12.82;;
69203;SDS011;56317;27.658;85.326;2024-01-27T08:49:17;36.60;;;16.50;;
69203;SDS011;56317;27.658;85.326;2024-01-27T08:51:45;35.90;;;15.13;;
69203;SDS011;56317;27.658;85.326;2024-01-27T08:54:12;28.77;;;15.45;;
69203;SDS011;56317;27.658;85.326;2024-01-27T08:56:39;26.13;;;10.88;;
69203;SDS011;56317;27.658;85.326;2024-01-27T08:59:07;35.70;;;15.77;;
69203;SDS011;56317;27.658;85.326;2024-01-27T09:01:34;37.17;;;16.05;;
69203;SDS011;56317;27.658;85.326;2024-01-27T09:04:01;32.22;;;14.13;;
69203;SDS011;56317;27.658;85.326;2024-01-27T09:06:28;36.28;;;14.32;;
69203;SDS011;56317;27.658;85.326;2024-01-27T09:08:56;31.40;;;15.55;;
69203;SDS011;56317;27.658;85.326;2024-01-27T09:11:23;35.97;;;14.85;;
69203;SDS011;56317;27.658;85.326;2024-01-27T09:13:53;38.83;;;15.07;;
69203;SDS011;56317;27.658;85.326;2024-01-27T09:16:20;31.60;;;16.15;;
69203;SDS011;56317;27.658;85.326;2024-01-27T09:18:47;29.92;;;14.15;;
69203;SDS011;56317;27.658;85.326;2024-01-27T09:21:18;33.83;;;15.25;;
69203;SDS011;56317;27.658;85.326;2024-01-27T09:23:56;37.92;;;15.18;;
69203;SDS011;56317;27.658;85.326;2024-01-27T09:26:24;30.13;;;15.32;;
69203;SDS011;56317;27.658;85.326;2024-01-27T09:28:51;33.78;;;15.98;;
69203;SDS011;56317;27.658;85.326;2024-01-27T09:31:24;37.28;;;17.48;;
69203;SDS011;56317;27.658;85.326;2024-01-27T09:33:52;33.38;;;15.20;;
69203;SDS011;56317;27.658;85.326;2024-01-27T09:36:20;37.03;;;15.40;;
69203;SDS011;56317;27.658;85.326;2024-01-27T09:38:48;30.48;;;15.57;;
69203;SDS011;56317;27.658;85.326;2024-01-27T09:41:15;27.70;;;13.57;;
69203;SDS011;56317;27.658;85.326;2024-01-27T09:43:43;33.03;;;16.05;;
69203;SDS011;56317;27.658;85.326;2024-01-27T09:46:14;38.13;;;14.57;;
69203;SDS011;56317;27.658;85.326;2024-01-27T09:51:10;28.58;;;12.23;;
69203;SDS011;56317;27.658;85.326;2024-01-27T09:53:37;33.47;;;14.80;;
69203;SDS011;56317;27.658;85.326;2024-01-27T09:56:05;64.90;;;17.15;;
69203;SDS011;56317;27.658;85.326;2024-01-27T09:58:34;36.08;;;15.10;;
69203;SDS011;56317;27.658;85.326;2024-01-27T10:01:01;35.95;;;16.30;;
69203;SDS011;56317;27.658;85.326;2024-01-27T10:03:29;37.15;;;15.00;;
69203;SDS011;56317;27.658;85.326;2024-01-27T10:05:57;27.98;;;12.77;;
69203;SDS011;56317;27.658;85.326;2024-01-27T10:08:26;28.65;;;13.40;;
69203;SDS011;56317;27.658;85.326;2024-01-27T10:10:56;29.25;;;13.73;;
69203;SDS011;56317;27.658;85.326;2024-01-27T10:13:23;22.75;;;12.10;;
69203;SDS011;56317;27.658;85.326;2024-01-27T10:16:03;44.07;;;17.30;;
69203;SDS011;56317;27.658;85.326;2024-01-27T10:18:31;32.20;;;15.90;;
69203;SDS011;56317;27.658;85.326;2024-01-27T10:20:59;37.50;;;17.08;;
69203;SDS011;56317;27.658;85.326;2024-01-27T10:23:26;34.75;;;15.05;;
69203;SDS011;56317;27.658;85.326;2024-01-27T10:25:54;35.67;;;16.23;;
69203;SDS011;56317;27.658;85.326;2024-01-27T10:28:21;37.05;;;18.75;;
69203;SDS011;56317;27.658;85.326;2024-01-27T10:30:49;18.33;;;9.75;;
69203;SDS011;56317;27.658;85.326;2024-01-27T10:33:16;35.05;;;16.55;;
69203;SDS011;56317;27.658;85.326;2024-01-27T10:35:43;32.25;;;16.50;;
69203;SDS011;56317;27.658;85.326;2024-01-27T10:38:10;32.83;;;16.42;;
69203;SDS011;56317;27.658;85.326;2024-01-27T10:40:38;33.28;;;15.23;;
69203;SDS011;56317;27.658;85.326;2024-01-27T10:43:05;42.50;;;15.77;;
69203;SDS011;56317;27.658;85.326;2024-01-27T10:48:05;43.78;;;16.60;;
69203;SDS011;56317;27.658;85.326;2024-01-27T10:50:35;42.30;;;18.27;;
69203;SDS011;56317;27.658;85.326;2024-01-27T10:53:04;40.47;;;18.30;;
69203;SDS011;56317;27.658;85.326;2024-01-27T10:55:35;40.17;;;18.75;;
69203;SDS011;56317;27.658;85.326;2024-01-27T10:58:04;41.47;;;18.17;;
69203;SDS011;56317;27.658;85.326;2024-01-27T11:00:31;36.17;;;18.38;;
69203;SDS011;56317;27.658;85.326;2024-01-27T11:03:01;35.85;;;16.58;;
69203;SDS011;56317;27.658;85.326;2024-01-27T11:05:30;58.10;;;22.40;;
69203;SDS011;56317;27.658;85.326;2024-01-27T11:08:04;43.80;;;20.05;;
69203;SDS011;56317;27.658;85.326;2024-01-27T11:10:34;39.47;;;19.30;;
69203;SDS011;56317;27.658;85.326;2024-01-27T11:13:06;41.63;;;20.42;;
69203;SDS011;56317;27.658;85.326;2024-01-27T11:15:35;45.08;;;20.55;;
69203;SDS011;56317;27.658;85.326;2024-01-27T11:18:02;45.05;;;19.25;;
69203;SDS011;56317;27.658;85.326;2024-01-27T11:20:31;43.30;;;19.27;;
69203;SDS011;56317;27.658;85.326;2024-01-27T11:23:16;40.25;;;18.65;;
69203;SDS011;56317;27.658;85.326;2024-01-27T11:25:44;43.08;;;19.40;;
69203;SDS011;56317;27.658;85.326;2024-01-27T11:28:11;57.33;;;25.13;;
69203;SDS011;56317;27.658;85.326;2024-01-27T11:30:44;53.35;;;23.63;;
69203;SDS011;56317;27.658;85.326;2024-01-27T11:33:15;48.92;;;23.42;;
69203;SDS011;56317;27.658;85.326;2024-01-27T11:35:44;58.15;;;24.33;;
69203;SDS011;56317;27.658;85.326;2024-01-27T11:38:11;44.25;;;19.50;;
69203;SDS011;56317;27.658;85.326;2024-01-27T11:40:45;61.47;;;26.98;;
69203;SDS011;56317;27.658;85.326;2024-01-27T11:43:12;53.97;;;23.75;;
69203;SDS011;56317;27.658;85.326;2024-01-27T11:45:40;63.25;;;24.73;;
69203;SDS011;56317;27.658;85.326;2024-01-27T11:48:07;65.50;;;31.42;;
69203;SDS011;56317;27.658;85.326;2024-01-27T11:50:34;59.45;;;24.48;;
69203;SDS011;56317;27.658;85.326;2024-01-27T11:53:02;65.18;;;26.10;;
69203;SDS011;56317;27.658;85.326;2024-01-27T11:55:33;56.00;;;27.02;;
69203;SDS011;56317;27.658;85.326;2024-01-27T11:58:00;62.22;;;25.63;;
69203;SDS011;56317;27.658;85.326;2024-01-27T12:00:27;61.58;;;25.02;;
69203;SDS011;56317;27.658;85.326;2024-01-27T12:02:54;53.08;;;22.52;;
69203;SDS011;56317;27.658;85.326;2024-01-27T12:05:21;60.83;;;25.80;;
69203;SDS011;56317;27.658;85.326;2024-01-27T12:07:50;57.72;;;25.42;;
69203;SDS011;56317;27.658;85.326;2024-01-27T12:10:17;47.33;;;20.50;;
69203;SDS011;56317;27.658;85.326;2024-01-27T12:12:45;53.15;;;23.85;;
69203;SDS011;56317;27.658;85.326;2024-01-27T12:15:12;60.28;;;24.08;;
69203;SDS011;56317;27.658;85.326;2024-01-27T12:17:40;50.05;;;23.45;;
69203;SDS011;56317;27.658;85.326;2024-01-27T12:20:14;66.63;;;29.77;;
69203;SDS011;56317;27.658;85.326;2024-01-27T12:22:44;44.85;;;21.30;;
69203;SDS011;56317;27.658;85.326;2024-01-27T12:25:11;63.13;;;27.05;;
69203;SDS011;56317;27.658;85.326;2024-01-27T12:27:39;63.92;;;29.00;;
69203;SDS011;56317;27.658;85.326;2024-01-27T12:30:07;62.67;;;31.02;;
69203;SDS011;56317;27.658;85.326;2024-01-27T12:32:35;81.20;;;37.05;;
69203;SDS011;56317;27.658;85.326;2024-01-27T12:35:06;75.60;;;32.83;;
69203;SDS011;56317;27.658;85.326;2024-01-27T12:37:34;67.35;;;30.05;;
69203;SDS011;56317;27.658;85.326;2024-01-27T12:40:02;59.88;;;27.85;;
69203;SDS011;56317;27.658;85.326;2024-01-27T12:42:42;60.97;;;29.17;;
69203;SDS011;56317;27.658;85.326;2024-01-27T12:45:09;66.50;;;31.92;;
69203;SDS011;56317;27.658;85.326;2024-01-27T12:47:36;68.07;;;30.23;;
69203;SDS011;56317;27.658;85.326;2024-01-27T12:50:04;66.75;;;32.35;;
69203;SDS011;56317;27.658;85.326;2024-01-27T12:52:32;46.70;;;20.52;;
69203;SDS011;56317;27.658;85.326;2024-01-27T12:54:59;77.72;;;33.45;;
69203;SDS011;56317;27.658;85.326;2024-01-27T12:57:26;71.03;;;33.33;;
69203;SDS011;56317;27.658;85.326;2024-01-27T12:59:53;77.53;;;34.92;;
69203;SDS011;56317;27.658;85.326;2024-01-27T13:02:20;72.90;;;28.10;;
69203;SDS011;56317;27.658;85.326;2024-01-27T13:04:48;64.65;;;27.88;;
69203;SDS011;56317;27.658;85.326;2024-01-27T13:07:15;57.63;;;23.55;;
69203;SDS011;56317;27.658;85.326;2024-01-27T13:09:42;64.72;;;29.17;;
69203;SDS011;56317;27.658;85.326;2024-01-27T13:12:09;64.88;;;28.15;;
69203;SDS011;56317;27.658;85.326;2024-01-27T13:14:37;61.60;;;28.63;;
69203;SDS011;56317;27.658;85.326;2024-01-27T13:17:04;61.53;;;25.67;;
69203;SDS011;56317;27.658;85.326;2024-01-27T13:19:32;59.60;;;27.50;;
69203;SDS011;56317;27.658;85.326;2024-01-27T13:21:59;63.40;;;27.67;;
69203;SDS011;56317;27.658;85.326;2024-01-27T13:24:26;64.60;;;26.63;;
69203;SDS011;56317;27.658;85.326;2024-01-27T13:26:54;65.82;;;29.50;;
69203;SDS011;56317;27.658;85.326;2024-01-27T13:29:21;68.07;;;27.77;;
69203;SDS011;56317;27.658;85.326;2024-01-27T13:31:49;73.30;;;33.05;;
69203;SDS011;56317;27.658;85.326;2024-01-27T13:34:16;67.25;;;28.52;;
69203;SDS011;56317;27.658;85.326;2024-01-27T13:36:44;62.70;;;26.42;;
69203;SDS011;56317;27.658;85.326;2024-01-27T13:39:11;60.50;;;26.98;;
69203;SDS011;56317;27.658;85.326;2024-01-27T13:41:39;64.47;;;28.27;;
69203;SDS011;56317;27.658;85.326;2024-01-27T13:44:06;67.80;;;28.77;;
69203;SDS011;56317;27.658;85.326;2024-01-27T13:46:36;67.18;;;27.92;;
69203;SDS011;56317;27.658;85.326;2024-01-27T13:49:03;65.97;;;29.60;;
69203;SDS011;56317;27.658;85.326;2024-01-27T13:51:30;72.65;;;31.70;;
69203;SDS011;56317;27.658;85.326;2024-01-27T13:53:58;77.78;;;33.03;;
69203;SDS011;56317;27.658;85.326;2024-01-27T13:56:25;69.30;;;30.33;;
69203;SDS011;56317;27.658;85.326;2024-01-27T13:58:54;69.25;;;29.85;;
69203;SDS011;56317;27.658;85.326;2024-01-27T14:01:21;70.45;;;30.85;;
69203;SDS011;56317;27.658;85.326;2024-01-27T14:03:48;59.97;;;28.50;;
69203;SDS011;56317;27.658;85.326;2024-01-27T14:06:16;69.53;;;31.90;;
69203;SDS011;56317;27.658;85.326;2024-01-27T14:08:43;62.80;;;29.50;;
69203;SDS011;56317;27.658;85.326;2024-01-27T14:11:10;63.58;;;28.42;;